Time;durP1;ratioP1;P1;durP2;ratioP2;P2;SDS_P1;SDS_P2;PMS_P1;PMS_P2;Temp;Humidity;BMP_temperature;BMP_pressure;BME280_temperature;BME280_humidity;BME280_pressure;Samples;Min_cycle;Max_cycle;Signal;HPM_P1;HPM_P2
2023/12/08 00:00:52;;;;;;;25.73;13.02;;;;;;;2.22;100.00;100579.22;5048750;28;20247;-74
2023/12/08 00:03:17;;;;;;;24.27;11.55;;;;;;;2.21;100.00;100563.41;5056608;28;20053;-73
2023/12/08 00:05:42;;;;;;;25.60;12.02;;;;;;;2.21;100.00;100560.75;5052370;28;20017;-75
2023/12/08 00:08:07;;;;;;;23.92;11.27;;;;;;;2.21;100.00;100566.03;5049693;28;20032;-74
2023/12/08 00:10:33;;;;;;;24.80;10.82;;;;;;;2.21;100.00;100566.03;5054959;28;20153;-71
2023/12/08 00:12:58;;;;;;;25.33;12.05;;;;;;;2.22;100.00;100563.31;5059727;28;20020;-71
2023/12/08 00:15:23;;;;;;;23.77;10.52;;;;;;;2.22;100.00;100552.72;5063710;28;20028;-71
2023/12/08 00:17:49;;;;;;;25.80;11.32;;;;;;;2.22;100.00;100549.22;5054644;28;20075;-71
2023/12/08 00:20:14;;;;;;;27.33;12.05;;;;;;;2.23;100.00;100550.94;5053663;28;20031;-72
2023/12/08 00:22:40;;;;;;;24.67;11.65;;;;;;;2.24;100.00;100560.59;5057426;28;20032;-71
2023/12/08 00:25:05;;;;;;;27.25;13.38;;;;;;;2.25;100.00;100555.22;5056267;28;20075;-71
2023/12/08 00:27:31;;;;;;;29.20;12.27;;;;;;;2.26;100.00;100551.66;5062554;28;20033;-71
2023/12/08 00:29:56;;;;;;;24.77;11.52;;;;;;;2.27;100.00;100550.75;5047186;28;20036;-72
2023/12/08 00:32:21;;;;;;;26.95;11.73;;;;;;;2.28;100.00;100548.94;5046878;28;20063;-70
2023/12/08 00:34:47;;;;;;;25.02;12.07;;;;;;;2.29;100.00;100537.41;5062565;28;20025;-70
2023/12/08 00:37:12;;;;;;;27.05;11.60;;;;;;;2.30;100.00;100535.63;5062777;28;20388;-70
2023/12/08 00:39:39;;;;;;;28.00;12.18;;;;;;;2.31;100.00;100530.25;5062094;28;20123;-72
2023/12/08 00:42:04;;;;;;;26.38;12.10;;;;;;;2.31;100.00;100540.00;5056053;28;20051;-72
2023/12/08 00:44:29;;;;;;;25.75;12.25;;;;;;;2.32;100.00;100531.97;5050699;28;20024;-71
2023/12/08 00:46:55;;;;;;;26.88;12.05;;;;;;;2.33;100.00;100533.72;5067201;28;20042;-71
2023/12/08 00:49:20;;;;;;;25.42;11.88;;;;;;;2.35;100.00;100526.53;5057905;28;20056;-72
2023/12/08 00:51:45;;;;;;;27.17;12.80;;;;;;;2.36;100.00;100532.72;5050378;28;20029;-71
2023/12/08 00:54:13;;;;;;;29.38;14.20;;;;;;;2.36;100.00;100522.13;5051680;28;20037;-71
2023/12/08 00:56:38;;;;;;;28.90;12.30;;;;;;;2.37;100.00;100522.03;5060302;28;20488;-70
2023/12/08 00:59:03;;;;;;;25.10;11.82;;;;;;;2.38;100.00;100521.09;5060387;28;20028;-71
2023/12/08 01:01:29;;;;;;;27.08;13.40;;;;;;;2.39;100.00;100511.38;5060225;28;20025;-70
2023/12/08 01:03:54;;;;;;;26.48;11.85;;;;;;;2.41;100.00;100513.00;5057142;28;20112;-71
2023/12/08 01:06:19;;;;;;;29.25;11.18;;;;;;;2.41;100.00;100510.34;5061787;28;20025;-70
2023/12/08 01:08:45;;;;;;;25.33;11.32;;;;;;;2.44;100.00;100504.91;5062957;28;20063;-71
2023/12/08 01:11:10;;;;;;;26.85;11.18;;;;;;;2.44;100.00;100499.59;5060193;28;20421;-71
2023/12/08 01:13:35;;;;;;;28.38;12.63;;;;;;;2.43;100.00;100497.88;5063700;28;20148;-71
2023/12/08 01:16:01;;;;;;;25.17;11.10;;;;;;;2.44;100.00;100493.44;5064019;28;20322;-70
2023/12/08 01:18:26;;;;;;;26.17;12.27;;;;;;;2.43;100.00;100497.88;5066315;28;20025;-71
2023/12/08 01:20:53;;;;;;;27.42;12.63;;;;;;;2.45;100.00;100490.72;5059385;28;20037;-72
2023/12/08 01:23:19;;;;;;;26.23;11.40;;;;;;;2.43;100.00;100483.75;5049078;28;20101;-72
2023/12/08 01:25:44;;;;;;;24.73;10.80;;;;;;;2.43;100.00;100489.06;5055983;28;20020;-72
2023/12/08 01:28:09;;;;;;;25.10;11.18;;;;;;;2.44;100.00;100488.97;5059404;28;20111;-72
2023/12/08 01:30:35;;;;;;;26.60;12.00;;;;;;;2.43;100.00;100489.94;5050606;28;20041;-72
2023/12/08 01:33:01;;;;;;;25.00;12.10;;;;;;;2.44;100.00;100477.53;5040598;28;20032;-72
2023/12/08 01:35:26;;;;;;;24.35;11.20;;;;;;;2.43;100.00;100481.09;5038939;28;20111;-73
2023/12/08 01:37:52;;;;;;;25.98;12.13;;;;;;;2.43;100.00;100476.66;5045567;28;20100;-73
2023/12/08 01:40:17;;;;;;;24.65;11.48;;;;;;;2.44;100.00;100472.22;5047703;28;20036;-72
2023/12/08 01:42:44;;;;;;;26.13;11.88;;;;;;;2.44;100.00;100473.06;5050277;28;20085;-72
2023/12/08 01:45:10;;;;;;;29.98;11.65;;;;;;;2.44;100.00;100472.22;5044182;28;20404;-72
2023/12/08 01:47:35;;;;;;;25.45;12.35;;;;;;;2.42;100.00;100456.38;5040854;28;20112;-72
2023/12/08 01:50:03;;;;;;;27.90;12.85;;;;;;;2.41;100.00;100457.28;5047764;28;20049;-72
2023/12/08 01:52:29;;;;;;;25.35;12.02;;;;;;;2.44;100.00;100469.56;5047617;28;20388;-73
2023/12/08 01:54:57;;;;;;;25.20;11.65;;;;;;;2.41;100.00;100462.59;5047654;28;20216;-72
2023/12/08 01:57:23;;;;;;;25.08;11.48;;;;;;;2.39;100.00;100464.47;5049238;28;20067;-72
2023/12/08 01:59:50;;;;;;;24.02;11.02;;;;;;;2.35;100.00;100457.59;5054652;28;20112;-73
2023/12/08 02:02:17;;;;;;;26.33;11.90;;;;;;;2.35;100.00;100462.88;5046705;28;20033;-73
2023/12/08 02:04:44;;;;;;;26.65;12.65;;;;;;;2.32;100.00;100465.69;5058082;28;20036;-72
2023/12/08 02:07:10;;;;;;;25.70;10.63;;;;;;;2.31;100.00;100456.00;5051850;28;20318;-72
2023/12/08 02:09:36;;;;;;;24.80;10.73;;;;;;;2.31;100.00;100456.00;5050682;28;20028;-73
2023/12/08 02:12:02;;;;;;;25.98;12.10;;;;;;;2.30;100.00;100450.75;5053077;28;20257;-72
2023/12/08 02:14:27;;;;;;;24.88;11.90;;;;;;;2.29;100.00;100441.97;5043530;28;20021;-73
2023/12/08 02:17:04;;;;;;;24.92;11.68;;;;;;;2.27;100.00;100439.38;5045075;28;20478;-72
2023/12/08 02:19:30;;;;;;;25.25;10.68;;;;;;;2.25;100.00;100424.47;5044284;28;20037;-72
2023/12/08 02:21:56;;;;;;;28.92;11.57;;;;;;;2.23;100.00;100418.38;5047205;28;20478;-72
2023/12/08 02:24:24;;;;;;;25.73;12.77;;;;;;;2.22;100.00;100411.34;5044507;28;20086;-72
2023/12/08 02:26:50;;;;;;;25.02;11.00;;;;;;;2.20;100.00;100411.41;5050635;28;20451;-72
2023/12/08 02:29:16;;;;;;;26.52;11.48;;;;;;;2.20;100.00;100413.22;5052573;28;20128;-72
2023/12/08 02:32:01;;;;;;;22.98;9.32;;;;;;;2.19;100.00;100422.09;5056402;28;20040;-72
2023/12/08 02:34:28;;;;;;;25.30;11.35;;;;;;;2.15;100.00;100426.66;5056036;28;20059;-72
2023/12/08 02:36:54;;;;;;;25.75;11.73;;;;;;;2.12;100.00;100424.16;5056497;28;20463;-72
2023/12/08 02:39:20;;;;;;;27.20;12.35;;;;;;;2.09;100.00;100432.25;5060871;28;20028;-72
2023/12/08 02:41:46;;;;;;;24.65;11.48;;;;;;;2.06;100.00;100419.97;5051528;28;20029;-72
2023/12/08 02:44:11;;;;;;;28.65;11.77;;;;;;;2.05;100.00;100423.59;5070151;28;20028;-72
2023/12/08 02:46:36;;;;;;;24.58;12.02;;;;;;;2.04;100.00;100421.84;5067433;28;20040;-72
2023/12/08 02:49:02;;;;;;;25.85;12.82;;;;;;;2.03;100.00;100420.13;5067226;28;20037;-72
2023/12/08 02:51:27;;;;;;;24.45;10.88;;;;;;;2.05;100.00;100420.06;5056506;28;20051;-72
2023/12/08 02:53:52;;;;;;;24.33;11.18;;;;;;;2.05;100.00;100417.41;5064650;28;20051;-72
2023/12/08 02:56:18;;;;;;;26.38;12.68;;;;;;;2.07;100.00;100420.84;5064275;28;20093;-72
2023/12/08 02:58:44;;;;;;;25.17;11.35;;;;;;;2.08;100.00;100418.13;5064066;28;20091;-72
2023/12/08 03:01:12;;;;;;;23.95;10.73;;;;;;;2.09;100.00;100421.63;5055399;28;20403;-72
2023/12/08 03:03:37;;;;;;;24.85;11.75;;;;;;;2.07;100.00;100423.50;5061835;28;20399;-72
2023/12/08 03:06:02;;;;;;;25.13;10.80;;;;;;;2.07;100.00;100420.84;5068383;28;20045;-72
2023/12/08 03:08:28;;;;;;;25.00;11.02;;;;;;;2.09;100.00;100424.28;5052308;28;20112;-72
2023/12/08 03:10:53;;;;;;;25.83;11.82;;;;;;;2.08;100.00;100423.44;5062940;28;20036;-72
2023/12/08 03:13:18;;;;;;;25.92;11.68;;;;;;;2.07;100.00;100426.16;5061468;28;20024;-72
2023/12/08 03:15:43;;;;;;;24.60;11.15;;;;;;;2.05;100.00;100426.22;5062895;28;20044;-72
2023/12/08 03:18:09;;;;;;;27.52;11.93;;;;;;;2.05;100.00;100423.59;5066776;28;20052;-72
2023/12/08 03:20:34;;;;;;;25.27;11.80;;;;;;;2.04;100.00;100419.19;5064871;28;20032;-72
2023/12/08 03:22:59;;;;;;;23.58;11.52;;;;;;;2.04;100.00;100415.69;5065970;28;20476;-72
2023/12/08 03:25:25;;;;;;;25.35;11.98;;;;;;;2.04;100.00;100413.06;5060555;28;20020;-72
2023/12/08 03:27:50;;;;;;;26.52;10.88;;;;;;;2.04;100.00;100413.91;5065750;28;20016;-72
2023/12/08 03:30:16;;;;;;;25.30;10.55;;;;;;;2.05;100.00;100415.63;5064502;28;20093;-71
2023/12/08 03:32:41;;;;;;;26.25;11.30;;;;;;;2.05;100.00;100412.97;5061417;28;20052;-72
2023/12/08 03:35:07;;;;;;;24.00;11.98;;;;;;;2.06;100.00;100413.81;5066170;28;20048;-72
2023/12/08 03:37:32;;;;;;;24.25;10.80;;;;;;;2.06;100.00;100416.47;5064923;28;20090;-72
2023/12/08 03:39:57;;;;;;;26.73;10.48;;;;;;;2.06;100.00;100419.97;5060076;28;20026;-72
2023/12/08 03:42:22;;;;;;;25.58;12.63;;;;;;;2.05;100.00;100415.63;5066312;28;20084;-70
2023/12/08 03:44:48;;;;;;;28.65;12.15;;;;;;;2.05;100.00;100409.44;5060494;28;20025;-70
2023/12/08 03:47:13;;;;;;;24.83;12.98;;;;;;;2.07;100.00;100412.91;5055335;28;20087;-71
2023/12/08 03:49:38;;;;;;;24.92;11.48;;;;;;;2.09;100.00;100419.88;5067697;28;20056;-70
2023/12/08 03:52:04;;;;;;;26.27;11.70;;;;;;;2.10;100.00;100410.97;5064253;28;20063;-71
2023/12/08 03:54:29;;;;;;;23.92;11.02;;;;;;;2.09;100.00;100403.97;5058961;28;20452;-71
2023/12/08 03:56:54;;;;;;;25.60;12.40;;;;;;;2.09;100.00;100403.97;5050270;28;20055;-70
2023/12/08 03:59:19;;;;;;;24.77;11.75;;;;;;;2.11;100.00;100401.25;5059772;28;20036;-71
2023/12/08 04:01:45;;;;;;;26.83;11.60;;;;;;;2.10;100.00;100394.22;5054695;28;20445;-72
2023/12/08 04:04:11;;;;;;;25.77;12.43;;;;;;;2.10;100.00;100378.31;5065574;28;20124;-72
2023/12/08 04:06:36;;;;;;;27.30;12.48;;;;;;;2.10;100.00;100378.31;5058736;28;20043;-72
2023/12/08 04:09:02;;;;;;;24.77;13.30;;;;;;;2.10;100.00;100381.81;5066947;28;20317;-72
2023/12/08 04:11:27;;;;;;;26.23;12.57;;;;;;;2.09;100.00;100366.84;5066981;28;20088;-72
2023/12/08 04:13:52;;;;;;;26.80;12.68;;;;;;;2.10;100.00;100362.41;5055680;28;20376;-72
2023/12/08 04:16:17;;;;;;;25.98;12.13;;;;;;;2.08;100.00;100369.56;5061974;28;20024;-72
2023/12/08 04:18:43;;;;;;;25.17;11.85;;;;;;;2.08;100.00;100375.72;5057533;28;20040;-72
2023/12/08 04:21:08;;;;;;;26.70;11.80;;;;;;;2.07;100.00;100374.00;5057448;28;20039;-72
2023/12/08 04:23:34;;;;;;;26.40;12.65;;;;;;;2.10;100.00;100399.50;5057079;28;20033;-72
2023/12/08 04:25:59;;;;;;;23.98;12.02;;;;;;;2.09;100.00;100388.06;5055498;28;20013;-72
2023/12/08 04:28:25;;;;;;;26.58;12.98;;;;;;;2.12;100.00;100391.50;5053266;28;20025;-72
2023/12/08 04:30:50;;;;;;;26.67;11.85;;;;;;;2.15;100.00;100391.34;5056810;28;20157;-72
2023/12/08 04:33:15;;;;;;;25.95;12.35;;;;;;;2.13;100.00;100391.41;5065753;28;20079;-72
2023/12/08 04:35:41;;;;;;;28.98;12.63;;;;;;;2.14;100.00;100395.78;5065410;28;20076;-72
2023/12/08 04:38:06;;;;;;;26.60;11.75;;;;;;;2.13;100.00;100383.47;5056271;28;20096;-72
2023/12/08 04:40:31;;;;;;;23.08;10.93;;;;;;;2.14;100.00;100371.94;5062663;28;20028;-72
2023/12/08 04:42:56;;;;;;;24.45;12.05;;;;;;;2.17;100.00;100376.25;5065024;28;20047;-72
2023/12/08 04:45:22;;;;;;;25.70;13.07;;;;;;;2.18;100.00;100375.28;5064942;28;20420;-72
2023/12/08 04:47:47;;;;;;;24.98;11.40;;;;;;;2.16;100.00;100383.31;5066063;28;20124;-72
2023/12/08 04:50:12;;;;;;;27.75;12.40;;;;;;;2.17;100.00;100385.03;5066667;28;20128;-72
2023/12/08 04:52:38;;;;;;;25.75;12.40;;;;;;;2.17;100.00;100385.03;5066382;28;20063;-72
2023/12/08 04:55:04;;;;;;;22.55;11.00;;;;;;;2.20;100.00;100387.56;5065883;28;20059;-72
2023/12/08 04:57:31;;;;;;;24.50;11.65;;;;;;;2.23;100.00;100383.91;5055443;28;20104;-72
2023/12/08 04:59:56;;;;;;;27.30;12.35;;;;;;;2.23;100.00;100383.91;5059060;28;20533;-72
2023/12/08 05:02:22;;;;;;;25.58;12.32;;;;;;;2.25;100.00;100382.03;5058878;28;20028;-72
2023/12/08 05:04:47;;;;;;;24.23;11.77;;;;;;;2.24;100.00;100375.00;5061594;28;20063;-72
2023/12/08 05:07:12;;;;;;;25.38;11.73;;;;;;;2.27;100.00;100375.75;5058998;28;20078;-72
2023/12/08 05:09:37;;;;;;;29.27;12.98;;;;;;;2.26;100.00;100366.06;5057617;28;20104;-72
2023/12/08 05:12:03;;;;;;;25.60;11.90;;;;;;;2.28;100.00;100365.97;5049561;28;20195;-73
2023/12/08 05:14:28;;;;;;;27.65;11.85;;;;;;;2.29;100.00;100357.09;5054795;28;20107;-74
2023/12/08 05:16:54;;;;;;;27.08;12.88;;;;;;;2.29;100.00;100359.75;5044175;28;20024;-73
2023/12/08 05:19:19;;;;;;;24.88;11.27;;;;;;;2.31;100.00;100363.19;5048541;28;20049;-74
2023/12/08 05:21:45;;;;;;;27.23;12.32;;;;;;;2.33;100.00;100347.19;5053290;28;20373;-73
2023/12/08 05:24:10;;;;;;;24.67;11.38;;;;;;;2.34;100.00;100349.78;5051169;28;20024;-74
2023/12/08 05:26:35;;;;;;;24.15;11.07;;;;;;;2.34;100.00;100355.06;5051422;28;20094;-73
2023/12/08 05:29:00;;;;;;;25.33;12.63;;;;;;;2.36;100.00;100357.69;5048813;28;20032;-74
2023/12/08 05:31:26;;;;;;;25.42;12.18;;;;;;;2.38;100.00;100371.72;5056076;28;20029;-73
2023/12/08 05:33:51;;;;;;;26.65;11.95;;;;;;;2.41;100.00;100368.94;5053273;28;20021;-74
2023/12/08 05:36:17;;;;;;;26.33;11.32;;;;;;;2.40;100.00;100368.06;5042601;28;20049;-74
2023/12/08 05:38:42;;;;;;;26.33;11.13;;;;;;;2.42;100.00;100378.59;5043646;28;20057;-74
2023/12/08 05:41:08;;;;;;;25.80;11.32;;;;;;;2.43;100.00;100372.34;5052123;28;20052;-73
2023/12/08 05:43:33;;;;;;;25.48;11.23;;;;;;;2.43;100.00;100378.53;5044210;28;20031;-74
2023/12/08 05:45:58;;;;;;;25.63;11.15;;;;;;;2.47;100.00;100376.59;5045213;28;20017;-75
2023/12/08 05:48:23;;;;;;;24.95;12.40;;;;;;;2.46;100.00;100380.19;5049486;28;20029;-74
2023/12/08 05:50:49;;;;;;;25.63;12.07;;;;;;;2.47;100.00;100381.03;5050921;28;20041;-74
2023/12/08 05:53:14;;;;;;;25.60;11.70;;;;;;;2.49;100.00;100381.81;5045276;28;20043;-74
2023/12/08 05:55:40;;;;;;;26.67;12.52;;;;;;;2.51;100.00;100382.63;5055458;28;20078;-73
2023/12/08 05:58:05;;;;;;;25.83;11.05;;;;;;;2.54;100.00;100385.97;5056312;28;20374;-74
2023/12/08 06:00:30;;;;;;;24.48;10.88;;;;;;;2.55;100.00;100374.44;5052227;28;20025;-74
2023/12/08 06:02:56;;;;;;;24.13;11.15;;;;;;;2.56;100.00;100378.81;5050473;28;20025;-72
2023/12/08 06:05:24;;;;;;;24.67;10.88;;;;;;;2.58;100.00;100370.78;5050737;28;20035;-74
2023/12/08 06:07:49;;;;;;;24.50;12.30;;;;;;;2.60;100.00;100376.88;5050128;28;20071;-74
2023/12/08 06:10:14;;;;;;;24.75;11.55;;;;;;;2.61;100.00;100378.59;5053987;28;20074;-74
2023/12/08 06:12:40;;;;;;;23.67;10.63;;;;;;;2.63;100.00;100379.38;5046445;28;20021;-73
2023/12/08 06:15:06;;;;;;;26.88;11.68;;;;;;;2.65;100.00;100384.59;5044717;28;20127;-73
2023/12/08 06:17:32;;;;;;;26.77;12.25;;;;;;;2.65;100.00;100387.25;5049253;28;20401;-74
2023/12/08 06:19:57;;;;;;;26.80;12.95;;;;;;;2.66;100.00;100381.03;5047551;28;20028;-75
2023/12/08 06:22:23;;;;;;;23.58;11.70;;;;;;;2.69;100.00;100386.19;5050066;28;20085;-72
2023/12/08 06:24:48;;;;;;;30.60;13.32;;;;;;;2.71;100.00;100386.97;5056483;28;20032;-70
2023/12/08 06:27:15;;;;;;;24.80;11.82;;;;;;;2.73;100.00;100385.09;5056160;28;20028;-70
2023/12/08 06:29:40;;;;;;;27.85;14.02;;;;;;;2.74;100.00;100390.34;5054661;28;20080;-71
2023/12/08 06:32:06;;;;;;;28.17;11.55;;;;;;;2.77;100.00;100394.66;5057876;28;20063;-70
2023/12/08 06:34:31;;;;;;;25.75;12.82;;;;;;;2.78;100.00;100385.72;5055572;28;20033;-71
2023/12/08 06:36:56;;;;;;;27.75;13.10;;;;;;;2.79;100.00;100387.47;5065853;28;20377;-71
2023/12/08 06:39:22;;;;;;;26.08;12.50;;;;;;;2.81;100.00;100385.56;5061436;28;20039;-70
2023/12/08 06:41:47;;;;;;;23.58;10.82;;;;;;;2.82;100.00;100403.22;5064456;28;20488;-70
2023/12/08 06:44:13;;;;;;;26.75;12.15;;;;;;;2.84;100.00;100405.81;5050404;28;20024;-71
2023/12/08 06:46:38;;;;;;;24.65;12.25;;;;;;;2.85;100.00;100402.22;5066063;28;20040;-71
2023/12/08 06:49:03;;;;;;;28.30;12.93;;;;;;;2.87;100.00;100401.22;5063150;28;20029;-71
2023/12/08 06:51:29;;;;;;;25.63;12.52;;;;;;;2.89;100.00;100398.50;5055172;28;20033;-70
2023/12/08 06:53:55;;;;;;;27.58;12.40;;;;;;;2.91;100.00;100407.22;5053443;28;20105;-70
2023/12/08 06:56:22;;;;;;;27.17;13.02;;;;;;;2.92;100.00;100408.97;5050629;28;20433;-70
2023/12/08 06:58:47;;;;;;;28.50;11.63;;;;;;;2.94;100.00;100407.09;5063970;28;20082;-71
2023/12/08 07:01:13;;;;;;;27.95;12.75;;;;;;;2.95;100.00;100419.44;5066499;28;20404;-70
2023/12/08 07:03:38;;;;;;;26.17;12.23;;;;;;;2.96;100.00;100416.69;5062227;28;20028;-71
2023/12/08 07:06:03;;;;;;;25.00;11.38;;;;;;;2.98;100.00;100406.00;5060065;28;20032;-70
2023/12/08 07:08:28;;;;;;;27.65;13.82;;;;;;;3.00;100.00;100412.09;5058953;28;20043;-70
2023/12/08 07:10:54;;;;;;;26.30;13.52;;;;;;;3.01;100.00;100405.00;5060042;28;20031;-71
2023/12/08 07:13:20;;;;;;;25.48;12.55;;;;;;;3.01;100.00;100411.16;5056591;28;20029;-70
2023/12/08 07:15:45;;;;;;;26.98;11.85;;;;;;;3.01;100.00;100408.50;5058774;28;20045;-71
2023/12/08 07:18:11;;;;;;;30.23;12.55;;;;;;;3.01;100.00;100408.50;5065890;28;20108;-71
2023/12/08 07:20:36;;;;;;;27.25;13.23;;;;;;;3.03;100.00;100411.09;5065932;28;20028;-71
2023/12/08 07:23:01;;;;;;;25.73;12.55;;;;;;;3.04;100.00;100412.81;5060987;28;20067;-70
2023/12/08 07:25:27;;;;;;;28.00;12.38;;;;;;;3.03;100.00;100406.66;5052726;28;20115;-71
2023/12/08 07:27:52;;;;;;;29.23;13.23;;;;;;;3.06;100.00;100411.81;5062571;28;20130;-70
2023/12/08 07:30:17;;;;;;;26.67;13.45;;;;;;;3.06;100.00;100417.13;5055690;28;20036;-70
2023/12/08 07:32:43;;;;;;;28.70;12.98;;;;;;;3.08;100.00;100420.53;5053327;28;20460;-74
2023/12/08 07:35:08;;;;;;;28.50;13.40;;;;;;;3.09;100.00;100429.34;5043275;28;20025;-74
2023/12/08 07:37:38;;;;;;;26.85;13.27;;;;;;;3.09;100.00;100427.59;5049213;28;20029;-75
2023/12/08 07:40:05;;;;;;;27.92;13.52;;;;;;;3.11;100.00;100431.00;5053005;28;20037;-74
2023/12/08 07:42:30;;;;;;;27.92;13.68;;;;;;;3.11;100.00;100433.66;5044746;28;20047;-72
2023/12/08 07:44:55;;;;;;;28.13;13.23;;;;;;;3.13;100.00;100434.47;5053891;28;20025;-71
2023/12/08 07:47:20;;;;;;;29.50;13.25;;;;;;;3.13;100.00;100436.25;5043677;28;20028;-71
2023/12/08 07:49:46;;;;;;;26.73;13.93;;;;;;;3.14;100.00;100437.97;5043794;28;20135;-72
2023/12/08 07:52:14;;;;;;;27.63;14.40;;;;;;;3.14;100.00;100446.78;5053481;28;20376;-70
2023/12/08 07:54:39;;;;;;;29.15;14.82;;;;;;;3.15;100.00;100443.22;5055976;28;20337;-71
2023/12/08 07:57:05;;;;;;;29.42;14.48;;;;;;;3.17;100.00;100451.09;5060895;28;20063;-71
2023/12/08 07:59:30;;;;;;;30.90;15.43;;;;;;;3.20;100.00;100447.44;5060191;28;20115;-70
2023/12/08 08:01:55;;;;;;;28.50;14.77;;;;;;;3.21;100.00;100455.34;5071394;28;20244;-70
2023/12/08 08:04:21;;;;;;;27.90;15.43;;;;;;;3.21;100.00;100442.06;5063971;28;20045;-71
2023/12/08 08:06:47;;;;;;;34.00;16.15;;;;;;;3.24;100.00;100449.00;5067255;28;20119;-70
2023/12/08 08:09:12;;;;;;;29.75;17.17;;;;;;;3.25;100.00;100448.06;5057877;28;20033;-70
2023/12/08 08:11:37;;;;;;;31.55;16.67;;;;;;;3.26;100.00;100450.63;5063910;28;20025;-71
2023/12/08 08:14:03;;;;;;;32.70;17.30;;;;;;;3.30;100.00;100457.53;5065805;28;20044;-71
2023/12/08 08:16:28;;;;;;;33.63;17.30;;;;;;;3.31;100.00;100447.78;5059104;28;20033;-72
2023/12/08 08:18:53;;;;;;;34.33;18.13;;;;;;;3.35;100.00;100454.63;5064272;28;20063;-70
2023/12/08 08:21:19;;;;;;;33.15;18.63;;;;;;;3.38;100.00;100448.31;5067179;28;20031;-70
2023/12/08 08:23:44;;;;;;;33.58;19.73;;;;;;;3.42;100.00;100461.38;5056698;28;20078;-71
2023/12/08 08:26:09;;;;;;;36.35;20.13;;;;;;;3.45;100.00;100460.34;5057792;28;20059;-70
2023/12/08 08:28:35;;;;;;;38.95;20.40;;;;;;;3.47;100.00;100461.13;5057511;28;20047;-70
2023/12/08 08:31:01;;;;;;;37.38;19.67;;;;;;;3.50;100.00;100459.19;5061205;28;20376;-71
2023/12/08 08:33:26;;;;;;;36.70;20.45;;;;;;;3.53;100.00;100449.34;5065807;28;20024;-71
2023/12/08 08:35:51;;;;;;;36.58;18.63;;;;;;;3.55;100.00;100451.00;5063583;28;20024;-71
2023/12/08 08:38:17;;;;;;;36.80;19.92;;;;;;;3.59;100.00;100457.88;5063494;28;20130;-70
2023/12/08 08:40:42;;;;;;;35.47;19.77;;;;;;;3.62;100.00;100463.03;5055591;28;20025;-70
2023/12/08 08:43:07;;;;;;;36.30;19.15;;;;;;;3.67;100.00;100465.44;5065419;28;20352;-73
2023/12/08 08:45:33;;;;;;;31.73;17.10;;;;;;;3.69;100.00;100471.56;5057473;28;20088;-71
2023/12/08 08:47:59;;;;;;;35.13;15.88;;;;;;;3.72;100.00;100479.38;5055946;28;20717;-71
2023/12/08 08:50:24;;;;;;;31.42;16.48;;;;;;;3.77;100.00;100482.66;5062101;28;20064;-71
2023/12/08 08:52:49;;;;;;;32.92;16.40;;;;;;;3.81;100.00;100478.91;5064109;28;20025;-71
2023/12/08 08:55:15;;;;;;;35.60;17.05;;;;;;;3.83;100.00;100477.00;5069084;28;20017;-71
2023/12/08 08:57:40;;;;;;;30.48;15.23;;;;;;;3.87;100.00;100484.84;5063395;28;20092;-71
2023/12/08 09:00:09;;;;;;;34.75;17.00;;;;;;;3.91;100.00;100489.06;5061300;28;20068;-70
2023/12/08 09:02:35;;;;;;;34.50;16.73;;;;;;;3.95;100.00;100485.31;5059043;28;20054;-72
2023/12/08 09:05:00;;;;;;;34.83;15.43;;;;;;;3.98;100.00;100485.13;5054334;28;20033;-72
2023/12/08 09:07:25;;;;;;;36.42;17.40;;;;;;;4.02;100.00;100487.56;5049616;28;20491;-72
2023/12/08 09:09:51;;;;;;;32.55;15.75;;;;;;;4.06;100.00;100500.72;5061659;28;20081;-72
2023/12/08 09:12:16;;;;;;;32.03;16.10;;;;;;;4.07;100.00;100497.97;5059415;28;20094;-72
2023/12/08 09:14:41;;;;;;;31.83;15.77;;;;;;;4.12;100.00;100498.59;5057157;28;20025;-72
2023/12/08 09:17:07;;;;;;;32.28;17.58;;;;;;;4.16;100.00;100492.16;5069607;28;20119;-72
2023/12/08 09:19:32;;;;;;;36.90;15.82;;;;;;;4.19;100.00;100489.34;5058409;28;20047;-72
2023/12/08 09:21:58;;;;;;;28.55;13.77;;;;;;;4.23;100.00;100497.16;5066705;28;20044;-72
2023/12/08 09:24:25;;;;;;;34.17;15.75;;;;;;;4.26;100.00;100499.66;5063701;28;20089;-72
2023/12/08 09:26:52;;;;;;;32.08;15.43;;;;;;;4.28;100.00;100490.66;5068716;28;20109;-72
2023/12/08 09:29:17;;;;;;;32.60;13.45;;;;;;;4.32;100.00;100499.31;5064723;28;20708;-72
2023/12/08 09:31:43;;;;;;;29.85;15.05;;;;;;;4.34;100.00;100497.47;5069593;28;20044;-72
2023/12/08 09:34:08;;;;;;;33.28;14.57;;;;;;;4.39;100.00;100503.38;5072652;28;20030;-72
2023/12/08 09:36:33;;;;;;;33.70;15.60;;;;;;;4.42;100.00;100511.19;5063702;28;20028;-72
2023/12/08 09:38:59;;;;;;;36.35;15.82;;;;;;;4.45;100.00;100510.19;5054787;28;20018;-72
2023/12/08 09:41:27;;;;;;;29.20;14.88;;;;;;;4.49;100.00;100511.75;5062740;28;20107;-72
2023/12/08 09:44:02;;;;;;;33.22;15.82;;;;;;;4.51;100.00;100505.41;5065747;28;20035;-72
2023/12/08 09:46:29;;;;;;;37.42;16.80;;;;;;;4.54;100.00;100509.72;5068626;28;20028;-72
2023/12/08 09:48:58;;;;;;;32.10;14.80;;;;;;;4.58;100.00;100513.06;5072050;28;20025;-72
2023/12/08 09:51:24;;;;;;;31.52;14.95;;;;;;;4.60;100.00;100508.50;5066269;28;20052;-72
2023/12/08 09:53:50;;;;;;;32.88;15.63;;;;;;;4.63;100.00;100511.88;5058576;28;20039;-72
2023/12/08 09:56:16;;;;;;;34.55;15.27;;;;;;;4.67;100.00;100515.22;5058729;28;20041;-72
2023/12/08 09:58:44;;;;;;;30.70;15.63;;;;;;;4.69;100.00;100524.84;5055549;28;20127;-72
2023/12/08 10:01:13;;;;;;;30.30;14.27;;;;;;;4.74;100.00;100521.94;5065334;28;20032;-72
2023/12/08 10:03:38;;;;;;;31.67;15.60;;;;;;;4.78;100.00;100528.81;5058911;28;20053;-72
2023/12/08 10:06:04;;;;;;;33.13;15.52;;;;;;;4.83;100.00;100515.25;5063816;28;20033;-72
2023/12/08 10:08:30;;;;;;;37.10;16.95;;;;;;;4.87;100.00;100522.97;5068829;28;20100;-72
2023/12/08 10:10:55;;;;;;;30.17;15.27;;;;;;;4.90;100.00;100506.84;5061032;28;20040;-72
2023/12/08 10:13:21;;;;;;;29.85;15.18;;;;;;;4.97;100.00;100515.34;5056254;28;20123;-72
2023/12/08 10:15:46;;;;;;;29.75;15.13;;;;;;;5.02;100.00;100510.63;5057577;28;20271;-72
2023/12/08 10:18:23;;;;;;;28.80;14.65;;;;;;;5.05;100.00;100515.78;5056224;28;20028;-72
2023/12/08 10:20:48;;;;;;;32.95;15.00;;;;;;;5.10;100.00;100507.53;5057676;28;20455;-72
2023/12/08 10:23:20;;;;;;;35.65;15.32;;;;;;;5.14;100.00;100519.75;5056372;28;20028;-72
2023/12/08 10:25:47;;;;;;;33.13;14.60;;;;;;;5.18;100.00;100525.75;5056003;28;20304;-72
2023/12/08 10:28:13;;;;;;;29.85;14.68;;;;;;;5.19;100.00;100520.34;5056117;28;20345;-72
2023/12/08 10:30:45;;;;;;;32.38;15.57;;;;;;;5.22;100.00;100520.16;5058859;28;20032;-72
2023/12/08 10:33:20;;;;;;;30.67;15.23;;;;;;;5.27;100.00;100527.03;5052348;28;20055;-72
2023/12/08 10:35:46;;;;;;;38.65;15.40;;;;;;;5.31;100.00;100531.25;5055412;28;20037;-72
2023/12/08 10:38:11;;;;;;;35.10;15.40;;;;;;;5.35;100.00;100527.47;5051888;28;20028;-72
2023/12/08 10:40:44;;;;;;;33.78;15.52;;;;;;;5.37;100.00;100531.78;5046276;28;20321;-72
2023/12/08 10:43:09;;;;;;;29.45;15.20;;;;;;;5.39;100.00;100532.53;5050626;28;20643;-72
2023/12/08 10:45:36;;;;;;;39.50;18.10;;;;;;;5.42;100.00;100532.34;5056248;28;20108;-72
2023/12/08 10:48:02;;;;;;;37.97;17.58;;;;;;;5.46;100.00;100524.19;5051593;28;20423;-72
2023/12/08 10:50:28;;;;;;;32.03;15.15;;;;;;;5.49;100.00;100524.00;5054276;28;20049;-72
2023/12/08 10:52:54;;;;;;;37.53;17.23;;;;;;;5.51;100.00;100522.97;5056566;28;20038;-72
2023/12/08 10:55:20;;;;;;;35.08;16.48;;;;;;;5.54;100.00;100521.94;5050846;28;20450;-72
2023/12/08 10:57:48;;;;;;;33.25;16.13;;;;;;;5.57;100.00;100517.28;5054736;28;20029;-72
2023/12/08 11:00:18;;;;;;;37.40;16.65;;;;;;;5.62;100.00;100516.16;5053997;28;20047;-72
2023/12/08 11:02:48;;;;;;;40.00;17.17;;;;;;;5.64;100.00;100520.47;5058091;28;20024;-72